sensor_id;sensor_type;location;lat;lon;timestamp;temperature;humidity
16477;DHT22;8349;50.928;6.376;2022-08-23T00:00:39;19.40;99.90
16477;DHT22;8349;50.928;6.376;2022-08-23T00:03:06;19.40;99.90
16477;DHT22;8349;50.928;6.376;2022-08-23T00:05:33;19.40;99.90
16477;DHT22;8349;50.928;6.376;2022-08-23T00:08:00;19.30;99.90
16477;DHT22;8349;50.928;6.376;2022-08-23T00:10:28;19.20;99.90
16477;DHT22;8349;50.928;6.376;2022-08-23T00:12:55;19.20;99.90
16477;DHT22;8349;50.928;6.376;2022-08-23T00:15:22;19.20;99.90
16477;DHT22;8349;50.928;6.376;2022-08-23T00:17:49;19.10;99.90
16477;DHT22;8349;50.928;6.376;2022-08-23T00:20:17;19.00;99.90
16477;DHT22;8349;50.928;6.376;2022-08-23T00:22:44;18.80;99.90
16477;DHT22;8349;50.928;6.376;2022-08-23T00:25:11;18.80;99.90
16477;DHT22;8349;50.928;6.376;2022-08-23T00:27:40;18.70;99.90
16477;DHT22;8349;50.928;6.376;2022-08-23T00:30:07;18.60;99.90
16477;DHT22;8349;50.928;6.376;2022-08-23T00:32:35;18.50;99.90
16477;DHT22;8349;50.928;6.376;2022-08-23T00:35:03;18.60;99.90
16477;DHT22;8349;50.928;6.376;2022-08-23T00:37:30;18.50;99.90
16477;DHT22;8349;50.928;6.376;2022-08-23T00:39:58;18.40;99.90
16477;DHT22;8349;50.928;6.376;2022-08-23T00:42:27;18.40;99.90
16477;DHT22;8349;50.928;6.376;2022-08-23T00:45:14;18.40;99.90
16477;DHT22;8349;50.928;6.376;2022-08-23T00:47:59;18.30;99.90
16477;DHT22;8349;50.928;6.376;2022-08-23T00:50:27;18.30;99.90
16477;DHT22;8349;50.928;6.376;2022-08-23T00:52:57;18.20;99.90
16477;DHT22;8349;50.928;6.376;2022-08-23T00:55:25;18.20;99.90
16477;DHT22;8349;50.928;6.376;2022-08-23T00:57:52;18.20;99.90
16477;DHT22;8349;50.928;6.376;2022-08-23T01:00:21;18.20;99.90
16477;DHT22;8349;50.928;6.376;2022-08-23T01:02:48;18.10;99.90
16477;DHT22;8349;50.928;6.376;2022-08-23T01:05:16;18.10;99.90
16477;DHT22;8349;50.928;6.376;2022-08-23T01:07:45;18.10;99.90
16477;DHT22;8349;50.928;6.376;2022-08-23T01:10:15;18.00;99.90
16477;DHT22;8349;50.928;6.376;2022-08-23T01:12:43;18.00;99.90
16477;DHT22;8349;50.928;6.376;2022-08-23T01:15:13;17.90;99.90
16477;DHT22;8349;50.928;6.376;2022-08-23T01:17:44;17.90;99.90
16477;DHT22;8349;50.928;6.376;2022-08-23T01:20:12;17.90;99.90
16477;DHT22;8349;50.928;6.376;2022-08-23T01:22:42;17.80;99.90
16477;DHT22;8349;50.928;6.376;2022-08-23T01:25:14;17.70;99.90
16477;DHT22;8349;50.928;6.376;2022-08-23T01:27:43;17.70;99.90
16477;DHT22;8349;50.928;6.376;2022-08-23T01:30:14;17.70;99.90
16477;DHT22;8349;50.928;6.376;2022-08-23T01:32:43;17.70;99.90
16477;DHT22;8349;50.928;6.376;2022-08-23T01:35:11;17.60;99.90
16477;DHT22;8349;50.928;6.376;2022-08-23T01:37:37;17.60;99.90
16477;DHT22;8349;50.928;6.376;2022-08-23T01:40:05;17.60;99.90
16477;DHT22;8349;50.928;6.376;2022-08-23T01:42:33;17.60;99.90
16477;DHT22;8349;50.928;6.376;2022-08-23T01:45:00;17.50;99.90
16477;DHT22;8349;50.928;6.376;2022-08-23T01:47:28;17.50;99.90
16477;DHT22;8349;50.928;6.376;2022-08-23T01:49:57;17.40;99.90
16477;DHT22;8349;50.928;6.376;2022-08-23T01:52:24;17.40;99.90
16477;DHT22;8349;50.928;6.376;2022-08-23T01:54:52;17.40;99.90
16477;DHT22;8349;50.928;6.376;2022-08-23T01:57:20;17.30;99.90
16477;DHT22;8349;50.928;6.376;2022-08-23T01:59:48;17.30;99.90
16477;DHT22;8349;50.928;6.376;2022-08-23T02:02:15;17.30;99.90
16477;DHT22;8349;50.928;6.376;2022-08-23T02:04:42;17.20;99.90
16477;DHT22;8349;50.928;6.376;2022-08-23T02:07:09;17.20;99.90
16477;DHT22;8349;50.928;6.376;2022-08-23T02:09:36;17.20;99.90
16477;DHT22;8349;50.928;6.376;2022-08-23T02:12:04;17.20;99.90
16477;DHT22;8349;50.928;6.376;2022-08-23T02:14:31;17.10;99.90
16477;DHT22;8349;50.928;6.376;2022-08-23T02:17:00;17.10;99.90
16477;DHT22;8349;50.928;6.376;2022-08-23T02:19:27;17.10;99.90
16477;DHT22;8349;50.928;6.376;2022-08-23T02:21:54;17.10;99.90
16477;DHT22;8349;50.928;6.376;2022-08-23T02:24:21;17.00;99.90
16477;DHT22;8349;50.928;6.376;2022-08-23T02:26:49;17.00;99.90
16477;DHT22;8349;50.928;6.376;2022-08-23T02:29:17;17.00;99.90
16477;DHT22;8349;50.928;6.376;2022-08-23T02:31:45;16.90;99.90
16477;DHT22;8349;50.928;6.376;2022-08-23T02:34:14;16.70;99.90
16477;DHT22;8349;50.928;6.376;2022-08-23T02:36:41;16.70;99.90
16477;DHT22;8349;50.928;6.376;2022-08-23T02:39:08;16.70;99.90
16477;DHT22;8349;50.928;6.376;2022-08-23T02:41:35;16.70;99.90
16477;DHT22;8349;50.928;6.376;2022-08-23T02:44:05;16.70;99.90
16477;DHT22;8349;50.928;6.376;2022-08-23T02:46:33;16.70;99.90
16477;DHT22;8349;50.928;6.376;2022-08-23T02:49:00;16.70;99.90
16477;DHT22;8349;50.928;6.376;2022-08-23T02:51:28;16.80;99.90
16477;DHT22;8349;50.928;6.376;2022-08-23T02:53:55;16.80;99.90
16477;DHT22;8349;50.928;6.376;2022-08-23T02:56:23;16.70;99.90
16477;DHT22;8349;50.928;6.376;2022-08-23T02:58:50;16.70;99.90
16477;DHT22;8349;50.928;6.376;2022-08-23T03:01:19;16.60;99.90
16477;DHT22;8349;50.928;6.376;2022-08-23T03:03:48;16.60;99.90
16477;DHT22;8349;50.928;6.376;2022-08-23T03:06:15;16.60;99.90
16477;DHT22;8349;50.928;6.376;2022-08-23T03:08:44;16.50;99.90
16477;DHT22;8349;50.928;6.376;2022-08-23T03:11:12;16.50;99.90
16477;DHT22;8349;50.928;6.376;2022-08-23T03:13:39;16.50;99.90
16477;DHT22;8349;50.928;6.376;2022-08-23T03:16:06;16.50;99.90
16477;DHT22;8349;50.928;6.376;2022-08-23T03:18:33;16.50;99.90
16477;DHT22;8349;50.928;6.376;2022-08-23T03:21:02;16.50;99.90
16477;DHT22;8349;50.928;6.376;2022-08-23T03:23:29;16.40;99.90
16477;DHT22;8349;50.928;6.376;2022-08-23T03:25:59;16.40;99.90
16477;DHT22;8349;50.928;6.376;2022-08-23T03:28:28;16.40;99.90
16477;DHT22;8349;50.928;6.376;2022-08-23T03:30:55;16.40;99.90
16477;DHT22;8349;50.928;6.376;2022-08-23T03:33:22;16.40;99.90
16477;DHT22;8349;50.928;6.376;2022-08-23T03:35:49;16.40;99.90
16477;DHT22;8349;50.928;6.376;2022-08-23T03:38:16;16.30;99.90
16477;DHT22;8349;50.928;6.376;2022-08-23T03:40:44;16.30;99.90
16477;DHT22;8349;50.928;6.376;2022-08-23T03:43:12;16.30;99.90
16477;DHT22;8349;50.928;6.376;2022-08-23T03:45:39;16.30;99.90
16477;DHT22;8349;50.928;6.376;2022-08-23T03:48:07;16.30;99.90
16477;DHT22;8349;50.928;6.376;2022-08-23T03:50:36;16.30;99.90
16477;DHT22;8349;50.928;6.376;2022-08-23T03:53:04;16.20;99.90
16477;DHT22;8349;50.928;6.376;2022-08-23T03:55:31;16.10;99.90
16477;DHT22;8349;50.928;6.376;2022-08-23T03:57:57;16.10;99.90
16477;DHT22;8349;50.928;6.376;2022-08-23T04:00:26;16.10;99.90
16477;DHT22;8349;50.928;6.376;2022-08-23T04:02:54;16.10;99.90
16477;DHT22;8349;50.928;6.376;2022-08-23T04:05:22;16.20;99.90
16477;DHT22;8349;50.928;6.376;2022-08-23T04:07:49;16.20;99.90
16477;DHT22;8349;50.928;6.376;2022-08-23T04:10:18;16.20;99.90
16477;DHT22;8349;50.928;6.376;2022-08-23T04:12:48;16.20;99.90
16477;DHT22;8349;50.928;6.376;2022-08-23T04:15:17;16.20;99.90
16477;DHT22;8349;50.928;6.376;2022-08-23T04:17:47;16.20;99.90
16477;DHT22;8349;50.928;6.376;2022-08-23T04:20:15;16.20;99.90
16477;DHT22;8349;50.928;6.376;2022-08-23T04:22:58;16.20;99.90
16477;DHT22;8349;50.928;6.376;2022-08-23T04:25:28;16.20;99.90
16477;DHT22;8349;50.928;6.376;2022-08-23T04:27:58;16.20;99.90
16477;DHT22;8349;50.928;6.376;2022-08-23T04:30:26;16.20;99.90
16477;DHT22;8349;50.928;6.376;2022-08-23T04:32:54;16.20;99.90
16477;DHT22;8349;50.928;6.376;2022-08-23T04:35:22;16.30;99.90
16477;DHT22;8349;50.928;6.376;2022-08-23T04:37:50;16.40;99.90
16477;DHT22;8349;50.928;6.376;2022-08-23T04:40:17;16.30;99.90
16477;DHT22;8349;50.928;6.376;2022-08-23T04:43:01;16.40;99.90
16477;DHT22;8349;50.928;6.376;2022-08-23T04:45:28;16.40;99.90
16477;DHT22;8349;50.928;6.376;2022-08-23T04:47:58;16.40;99.90
16477;DHT22;8349;50.928;6.376;2022-08-23T04:50:26;16.40;99.90
16477;DHT22;8349;50.928;6.376;2022-08-23T04:53:15;16.40;99.90
16477;DHT22;8349;50.928;6.376;2022-08-23T04:55:50;16.40;99.90
16477;DHT22;8349;50.928;6.376;2022-08-23T04:58:17;16.40;99.90
16477;DHT22;8349;50.928;6.376;2022-08-23T05:00:51;16.40;99.90
16477;DHT22;8349;50.928;6.376;2022-08-23T05:03:25;16.40;99.90
16477;DHT22;8349;50.928;6.376;2022-08-23T05:05:53;16.50;99.90
16477;DHT22;8349;50.928;6.376;2022-08-23T05:08:26;16.50;99.90
16477;DHT22;8349;50.928;6.376;2022-08-23T05:10:53;16.50;99.90
16477;DHT22;8349;50.928;6.376;2022-08-23T05:13:21;16.50;99.90
16477;DHT22;8349;50.928;6.376;2022-08-23T05:15:49;16.50;99.90
16477;DHT22;8349;50.928;6.376;2022-08-23T05:18:17;16.50;99.90
16477;DHT22;8349;50.928;6.376;2022-08-23T05:20:46;16.50;99.90
16477;DHT22;8349;50.928;6.376;2022-08-23T05:23:12;16.60;99.90
16477;DHT22;8349;50.928;6.376;2022-08-23T05:25:48;16.60;99.90
16477;DHT22;8349;50.928;6.376;2022-08-23T05:28:23;16.70;99.90
16477;DHT22;8349;50.928;6.376;2022-08-23T05:30:54;16.80;99.90
16477;DHT22;8349;50.928;6.376;2022-08-23T05:33:32;16.90;99.90
16477;DHT22;8349;50.928;6.376;2022-08-23T05:36:01;17.00;99.90
16477;DHT22;8349;50.928;6.376;2022-08-23T05:38:28;17.00;99.90
16477;DHT22;8349;50.928;6.376;2022-08-23T05:40:57;17.10;99.90
16477;DHT22;8349;50.928;6.376;2022-08-23T05:43:26;17.20;99.90
16477;DHT22;8349;50.928;6.376;2022-08-23T05:46:00;17.30;99.90
16477;DHT22;8349;50.928;6.376;2022-08-23T05:48:29;17.40;99.90
16477;DHT22;8349;50.928;6.376;2022-08-23T05:51:08;17.50;99.90
16477;DHT22;8349;50.928;6.376;2022-08-23T05:53:35;17.50;99.90
16477;DHT22;8349;50.928;6.376;2022-08-23T05:56:07;17.60;99.90
16477;DHT22;8349;50.928;6.376;2022-08-23T05:58:34;17.60;99.90
16477;DHT22;8349;50.928;6.376;2022-08-23T06:01:01;17.70;99.90
16477;DHT22;8349;50.928;6.376;2022-08-23T06:03:27;17.80;99.90
16477;DHT22;8349;50.928;6.376;2022-08-23T06:05:55;17.90;99.90
16477;DHT22;8349;50.928;6.376;2022-08-23T06:08:24;18.00;99.90
16477;DHT22;8349;50.928;6.376;2022-08-23T06:10:57;18.10;99.90
16477;DHT22;8349;50.928;6.376;2022-08-23T06:13:26;18.20;99.90
16477;DHT22;8349;50.928;6.376;2022-08-23T06:15:54;18.30;99.90
16477;DHT22;8349;50.928;6.376;2022-08-23T06:18:22;18.50;99.90
16477;DHT22;8349;50.928;6.376;2022-08-23T06:21:00;18.60;99.90
16477;DHT22;8349;50.928;6.376;2022-08-23T06:23:39;18.70;99.90
16477;DHT22;8349;50.928;6.376;2022-08-23T06:26:10;18.80;99.90
16477;DHT22;8349;50.928;6.376;2022-08-23T06:28:37;18.90;99.90
16477;DHT22;8349;50.928;6.376;2022-08-23T06:31:04;19.00;99.90
16477;DHT22;8349;50.928;6.376;2022-08-23T06:33:34;19.00;99.90
16477;DHT22;8349;50.928;6.376;2022-08-23T06:36:20;19.00;99.90
16477;DHT22;8349;50.928;6.376;2022-08-23T06:39:04;19.10;99.90
16477;DHT22;8349;50.928;6.376;2022-08-23T06:41:56;19.10;99.90
16477;DHT22;8349;50.928;6.376;2022-08-23T06:44:27;19.20;99.90
16477;DHT22;8349;50.928;6.376;2022-08-23T06:46:59;19.20;99.90
16477;DHT22;8349;50.928;6.376;2022-08-23T06:49:26;19.30;99.90
16477;DHT22;8349;50.928;6.376;2022-08-23T06:51:55;19.40;99.90
16477;DHT22;8349;50.928;6.376;2022-08-23T06:54:36;19.50;99.90
16477;DHT22;8349;50.928;6.376;2022-08-23T06:57:27;19.60;99.90
16477;DHT22;8349;50.928;6.376;2022-08-23T07:00:16;19.80;99.90
16477;DHT22;8349;50.928;6.376;2022-08-23T07:02:55;19.90;99.90
16477;DHT22;8349;50.928;6.376;2022-08-23T07:05:48;20.00;99.90
16477;DHT22;8349;50.928;6.376;2022-08-23T07:08:24;20.20;99.90
16477;DHT22;8349;50.928;6.376;2022-08-23T07:10:53;20.30;99.90
16477;DHT22;8349;50.928;6.376;2022-08-23T07:13:21;20.40;99.90
16477;DHT22;8349;50.928;6.376;2022-08-23T07:15:48;20.50;99.90
16477;DHT22;8349;50.928;6.376;2022-08-23T07:18:15;20.60;99.90
16477;DHT22;8349;50.928;6.376;2022-08-23T07:20:42;20.70;99.90
16477;DHT22;8349;50.928;6.376;2022-08-23T07:23:09;20.80;99.90
16477;DHT22;8349;50.928;6.376;2022-08-23T07:25:38;20.90;99.90
16477;DHT22;8349;50.928;6.376;2022-08-23T07:28:08;21.00;99.90
16477;DHT22;8349;50.928;6.376;2022-08-23T07:30:36;21.10;99.90
16477;DHT22;8349;50.928;6.376;2022-08-23T07:33:04;21.30;99.90
16477;DHT22;8349;50.928;6.376;2022-08-23T07:35:32;21.40;99.90
16477;DHT22;8349;50.928;6.376;2022-08-23T07:37:59;21.50;99.90
16477;DHT22;8349;50.928;6.376;2022-08-23T07:40:32;21.70;99.90
16477;DHT22;8349;50.928;6.376;2022-08-23T07:43:00;21.80;99.90
16477;DHT22;8349;50.928;6.376;2022-08-23T07:45:29;22.00;99.90
16477;DHT22;8349;50.928;6.376;2022-08-23T07:47:59;22.10;99.90
16477;DHT22;8349;50.928;6.376;2022-08-23T07:50:26;22.30;99.90
16477;DHT22;8349;50.928;6.376;2022-08-23T07:52:54;22.50;99.90
16477;DHT22;8349;50.928;6.376;2022-08-23T07:55:21;22.60;99.90
16477;DHT22;8349;50.928;6.376;2022-08-23T07:58:07;22.90;99.90
16477;DHT22;8349;50.928;6.376;2022-08-23T08:00:56;23.00;99.90
16477;DHT22;8349;50.928;6.376;2022-08-23T08:03:40;23.20;99.90
16477;DHT22;8349;50.928;6.376;2022-08-23T08:06:19;23.30;99.90
16477;DHT22;8349;50.928;6.376;2022-08-23T08:08:47;23.40;99.90
16477;DHT22;8349;50.928;6.376;2022-08-23T08:11:15;23.50;99.90
16477;DHT22;8349;50.928;6.376;2022-08-23T08:13:43;23.70;99.90
16477;DHT22;8349;50.928;6.376;2022-08-23T08:16:18;23.80;99.90
16477;DHT22;8349;50.928;6.376;2022-08-23T08:18:45;23.90;99.90
16477;DHT22;8349;50.928;6.376;2022-08-23T08:21:30;24.00;99.90
16477;DHT22;8349;50.928;6.376;2022-08-23T08:24:16;24.10;99.90
16477;DHT22;8349;50.928;6.376;2022-08-23T08:26:47;24.20;99.90
16477;DHT22;8349;50.928;6.376;2022-08-23T08:29:15;24.40;99.90
16477;DHT22;8349;50.928;6.376;2022-08-23T08:31:45;24.40;99.90
16477;DHT22;8349;50.928;6.376;2022-08-23T08:34:13;24.50;99.90
16477;DHT22;8349;50.928;6.376;2022-08-23T08:36:42;24.50;99.90
16477;DHT22;8349;50.928;6.376;2022-08-23T08:39:16;24.60;99.90
16477;DHT22;8349;50.928;6.376;2022-08-23T08:41:50;24.70;99.90
16477;DHT22;8349;50.928;6.376;2022-08-23T08:44:23;24.70;99.90
16477;DHT22;8349;50.928;6.376;2022-08-23T08:46:57;24.80;99.90
16477;DHT22;8349;50.928;6.376;2022-08-23T08:49:28;24.90;99.90
16477;DHT22;8349;50.928;6.376;2022-08-23T08:51:58;24.90;99.90
16477;DHT22;8349;50.928;6.376;2022-08-23T08:54:28;25.00;99.90
16477;DHT22;8349;50.928;6.376;2022-08-23T08:56:57;25.10;99.90
16477;DHT22;8349;50.928;6.376;2022-08-23T08:59:28;25.20;99.90
16477;DHT22;8349;50.928;6.376;2022-08-23T09:02:00;25.20;99.90
16477;DHT22;8349;50.928;6.376;2022-08-23T09:04:33;25.20;99.90
16477;DHT22;8349;50.928;6.376;2022-08-23T09:07:05;25.20;99.90
16477;DHT22;8349;50.928;6.376;2022-08-23T09:09:45;25.30;99.90
16477;DHT22;8349;50.928;6.376;2022-08-23T09:12:16;25.40;99.90
16477;DHT22;8349;50.928;6.376;2022-08-23T09:14:51;25.40;99.90
16477;DHT22;8349;50.928;6.376;2022-08-23T09:17:25;25.50;99.90
16477;DHT22;8349;50.928;6.376;2022-08-23T09:19:55;25.50;99.90
16477;DHT22;8349;50.928;6.376;2022-08-23T09:22:24;25.60;99.90
16477;DHT22;8349;50.928;6.376;2022-08-23T09:24:54;25.60;99.90
16477;DHT22;8349;50.928;6.376;2022-08-23T09:27:26;25.60;99.90
16477;DHT22;8349;50.928;6.376;2022-08-23T09:29:55;25.60;99.90
16477;DHT22;8349;50.928;6.376;2022-08-23T09:32:31;25.70;99.90
16477;DHT22;8349;50.928;6.376;2022-08-23T09:35:08;25.80;99.90
16477;DHT22;8349;50.928;6.376;2022-08-23T09:37:47;25.90;99.90
16477;DHT22;8349;50.928;6.376;2022-08-23T09:40:16;26.00;99.90
16477;DHT22;8349;50.928;6.376;2022-08-23T09:42:43;26.00;99.90
16477;DHT22;8349;50.928;6.376;2022-08-23T09:45:24;26.10;99.90
16477;DHT22;8349;50.928;6.376;2022-08-23T09:47:52;26.10;99.90
16477;DHT22;8349;50.928;6.376;2022-08-23T09:50:23;26.20;99.90
16477;DHT22;8349;50.928;6.376;2022-08-23T09:52:53;26.30;99.90
16477;DHT22;8349;50.928;6.376;2022-08-23T09:55:26;26.40;99.90
16477;DHT22;8349;50.928;6.376;2022-08-23T09:57:53;26.40;99.90
16477;DHT22;8349;50.928;6.376;2022-08-23T10:00:23;26.50;99.90
16477;DHT22;8349;50.928;6.376;2022-08-23T10:02:53;26.50;99.90
16477;DHT22;8349;50.928;6.376;2022-08-23T10:05:28;26.60;99.90
16477;DHT22;8349;50.928;6.376;2022-08-23T10:07:57;26.80;99.90
16477;DHT22;8349;50.928;6.376;2022-08-23T10:10:27;26.80;99.90
16477;DHT22;8349;50.928;6.376;2022-08-23T10:13:00;26.80;99.90
16477;DHT22;8349;50.928;6.376;2022-08-23T10:15:34;26.90;99.90
16477;DHT22;8349;50.928;6.376;2022-08-23T10:18:09;27.00;99.90
16477;DHT22;8349;50.928;6.376;2022-08-23T10:20:40;27.00;99.90
16477;DHT22;8349;50.928;6.376;2022-08-23T10:23:14;27.10;99.90
16477;DHT22;8349;50.928;6.376;2022-08-23T10:25:50;27.20;99.90
16477;DHT22;8349;50.928;6.376;2022-08-23T10:28:21;27.30;99.90
16477;DHT22;8349;50.928;6.376;2022-08-23T10:31:11;27.40;99.90
16477;DHT22;8349;50.928;6.376;2022-08-23T10:33:45;27.30;99.90
16477;DHT22;8349;50.928;6.376;2022-08-23T10:36:17;27.30;99.90
16477;DHT22;8349;50.928;6.376;2022-08-23T10:38:46;27.40;99.90
16477;DHT22;8349;50.928;6.376;2022-08-23T10:41:26;27.40;99.90
16477;DHT22;8349;50.928;6.376;2022-08-23T10:43:59;27.30;99.90
16477;DHT22;8349;50.928;6.376;2022-08-23T10:46:29;27.50;99.90
16477;DHT22;8349;50.928;6.376;2022-08-23T10:48:59;27.60;99.90
16477;DHT22;8349;50.928;6.376;2022-08-23T10:51:29;27.80;99.90
16477;DHT22;8349;50.928;6.376;2022-08-23T10:53:59;27.90;99.90
16477;DHT22;8349;50.928;6.376;2022-08-23T10:56:28;28.00;99.90
16477;DHT22;8349;50.928;6.376;2022-08-23T10:58:57;28.20;99.90
16477;DHT22;8349;50.928;6.376;2022-08-23T11:01:27;28.60;99.90
16477;DHT22;8349;50.928;6.376;2022-08-23T11:04:00;28.90;99.90
16477;DHT22;8349;50.928;6.376;2022-08-23T11:09:30;29.50;99.90
16477;DHT22;8349;50.928;6.376;2022-08-23T11:12:04;29.60;99.90
16477;DHT22;8349;50.928;6.376;2022-08-23T11:14:33;29.80;99.90
16477;DHT22;8349;50.928;6.376;2022-08-23T11:17:03;29.60;99.90
16477;DHT22;8349;50.928;6.376;2022-08-23T11:19:50;30.10;99.90
16477;DHT22;8349;50.928;6.376;2022-08-23T11:22:19;30.60;99.90
16477;DHT22;8349;50.928;6.376;2022-08-23T11:24:48;30.60;99.90
16477;DHT22;8349;50.928;6.376;2022-08-23T11:27:29;30.10;99.90
16477;DHT22;8349;50.928;6.376;2022-08-23T11:29:57;30.20;99.90
16477;DHT22;8349;50.928;6.376;2022-08-23T11:32:54;30.70;99.90
16477;DHT22;8349;50.928;6.376;2022-08-23T11:35:35;32.50;99.90
16477;DHT22;8349;50.928;6.376;2022-08-23T11:38:03;34.10;99.90
16477;DHT22;8349;50.928;6.376;2022-08-23T11:40:40;36.70;99.90
16477;DHT22;8349;50.928;6.376;2022-08-23T11:43:09;38.20;99.90
16477;DHT22;8349;50.928;6.376;2022-08-23T11:45:41;39.10;99.90
16477;DHT22;8349;50.928;6.376;2022-08-23T11:48:12;38.20;99.90
16477;DHT22;8349;50.928;6.376;2022-08-23T11:53:25;38.00;99.90
16477;DHT22;8349;50.928;6.376;2022-08-23T11:58:56;35.30;99.90
16477;DHT22;8349;50.928;6.376;2022-08-23T12:01:26;35.10;99.90
16477;DHT22;8349;50.928;6.376;2022-08-23T12:03:54;34.20;99.90
16477;DHT22;8349;50.928;6.376;2022-08-23T12:09:13;33.80;99.90
16477;DHT22;8349;50.928;6.376;2022-08-23T12:14:32;33.80;99.90
16477;DHT22;8349;50.928;6.376;2022-08-23T12:17:01;36.10;99.90
16477;DHT22;8349;50.928;6.376;2022-08-23T12:19:30;37.10;99.90
16477;DHT22;8349;50.928;6.376;2022-08-23T12:22:00;36.90;99.90
16477;DHT22;8349;50.928;6.376;2022-08-23T12:24:33;36.30;99.90
16477;DHT22;8349;50.928;6.376;2022-08-23T12:27:07;35.90;99.90
16477;DHT22;8349;50.928;6.376;2022-08-23T12:29:41;35.80;99.90
16477;DHT22;8349;50.928;6.376;2022-08-23T12:32:11;36.50;99.90
16477;DHT22;8349;50.928;6.376;2022-08-23T12:34:44;36.90;99.90
16477;DHT22;8349;50.928;6.376;2022-08-23T12:37:14;34.50;99.90
16477;DHT22;8349;50.928;6.376;2022-08-23T12:39:47;34.10;99.90
16477;DHT22;8349;50.928;6.376;2022-08-23T12:42:15;34.30;99.90
16477;DHT22;8349;50.928;6.376;2022-08-23T12:44:45;33.90;99.90
16477;DHT22;8349;50.928;6.376;2022-08-23T12:47:13;33.70;99.90
16477;DHT22;8349;50.928;6.376;2022-08-23T12:49:40;33.20;99.90
16477;DHT22;8349;50.928;6.376;2022-08-23T12:52:08;32.40;99.90
16477;DHT22;8349;50.928;6.376;2022-08-23T12:54:36;32.70;99.90
16477;DHT22;8349;50.928;6.376;2022-08-23T12:57:05;33.70;99.90
16477;DHT22;8349;50.928;6.376;2022-08-23T12:59:37;34.40;99.90
16477;DHT22;8349;50.928;6.376;2022-08-23T13:02:05;34.70;99.90
16477;DHT22;8349;50.928;6.376;2022-08-23T13:04:33;35.80;99.90
16477;DHT22;8349;50.928;6.376;2022-08-23T13:07:03;36.80;99.90
16477;DHT22;8349;50.928;6.376;2022-08-23T13:09:31;36.60;99.90
16477;DHT22;8349;50.928;6.376;2022-08-23T13:11:59;36.00;99.90
16477;DHT22;8349;50.928;6.376;2022-08-23T13:14:35;35.70;99.90
16477;DHT22;8349;50.928;6.376;2022-08-23T13:17:13;35.00;99.90
16477;DHT22;8349;50.928;6.376;2022-08-23T13:19:41;34.50;99.90
16477;DHT22;8349;50.928;6.376;2022-08-23T13:22:08;34.10;99.90
16477;DHT22;8349;50.928;6.376;2022-08-23T13:24:37;33.30;99.90
16477;DHT22;8349;50.928;6.376;2022-08-23T13:27:12;32.60;99.90
16477;DHT22;8349;50.928;6.376;2022-08-23T13:29:51;32.40;99.90
16477;DHT22;8349;50.928;6.376;2022-08-23T13:32:30;32.20;99.90
16477;DHT22;8349;50.928;6.376;2022-08-23T13:37:44;32.50;99.90
16477;DHT22;8349;50.928;6.376;2022-08-23T13:40:21;33.10;99.90
16477;DHT22;8349;50.928;6.376;2022-08-23T13:42:50;33.00;99.90
16477;DHT22;8349;50.928;6.376;2022-08-23T13:45:20;32.90;99.90
16477;DHT22;8349;50.928;6.376;2022-08-23T13:47:49;32.60;99.90
16477;DHT22;8349;50.928;6.376;2022-08-23T13:50:21;32.70;99.90
16477;DHT22;8349;50.928;6.376;2022-08-23T13:52:48;32.80;99.90
16477;DHT22;8349;50.928;6.376;2022-08-23T13:55:15;33.10;99.90
16477;DHT22;8349;50.928;6.376;2022-08-23T13:57:42;33.10;99.90
16477;DHT22;8349;50.928;6.376;2022-08-23T14:00:09;33.00;99.90
16477;DHT22;8349;50.928;6.376;2022-08-23T14:02:38;33.50;99.90
16477;DHT22;8349;50.928;6.376;2022-08-23T14:05:05;34.40;99.90
16477;DHT22;8349;50.928;6.376;2022-08-23T14:07:33;34.50;99.90
16477;DHT22;8349;50.928;6.376;2022-08-23T14:10:00;34.30;99.90
16477;DHT22;8349;50.928;6.376;2022-08-23T14:12:28;35.40;99.90
16477;DHT22;8349;50.928;6.376;2022-08-23T14:14:55;36.30;99.90
16477;DHT22;8349;50.928;6.376;2022-08-23T14:17:22;36.50;99.90
16477;DHT22;8349;50.928;6.376;2022-08-23T14:19:50;36.10;99.90
16477;DHT22;8349;50.928;6.376;2022-08-23T14:22:17;35.20;99.90
16477;DHT22;8349;50.928;6.376;2022-08-23T14:24:44;35.20;99.90
16477;DHT22;8349;50.928;6.376;2022-08-23T14:27:11;35.50;99.90
16477;DHT22;8349;50.928;6.376;2022-08-23T14:29:38;35.30;99.90
16477;DHT22;8349;50.928;6.376;2022-08-23T14:32:05;35.40;99.90
16477;DHT22;8349;50.928;6.376;2022-08-23T14:34:32;35.10;99.90
16477;DHT22;8349;50.928;6.376;2022-08-23T14:37:00;35.10;99.90
16477;DHT22;8349;50.928;6.376;2022-08-23T14:39:27;35.00;99.90
16477;DHT22;8349;50.928;6.376;2022-08-23T14:41:54;34.80;99.90
16477;DHT22;8349;50.928;6.376;2022-08-23T14:44:21;34.50;99.90
16477;DHT22;8349;50.928;6.376;2022-08-23T14:46:48;34.20;99.90
16477;DHT22;8349;50.928;6.376;2022-08-23T14:49:15;33.60;99.90
16477;DHT22;8349;50.928;6.376;2022-08-23T14:51:43;33.00;99.90
16477;DHT22;8349;50.928;6.376;2022-08-23T14:54:14;32.70;99.90
16477;DHT22;8349;50.928;6.376;2022-08-23T14:56:42;32.60;99.90
16477;DHT22;8349;50.928;6.376;2022-08-23T14:59:09;32.60;99.90
16477;DHT22;8349;50.928;6.376;2022-08-23T15:01:36;33.20;99.90
16477;DHT22;8349;50.928;6.376;2022-08-23T15:04:03;34.20;99.90
16477;DHT22;8349;50.928;6.376;2022-08-23T15:06:30;34.60;99.90
16477;DHT22;8349;50.928;6.376;2022-08-23T15:08:57;34.50;99.90
16477;DHT22;8349;50.928;6.376;2022-08-23T15:11:25;34.20;99.90
16477;DHT22;8349;50.928;6.376;2022-08-23T15:13:52;33.80;99.90
16477;DHT22;8349;50.928;6.376;2022-08-23T15:16:19;34.30;99.90
16477;DHT22;8349;50.928;6.376;2022-08-23T15:18:48;35.60;99.90
16477;DHT22;8349;50.928;6.376;2022-08-23T15:21:15;36.90;99.90
16477;DHT22;8349;50.928;6.376;2022-08-23T15:23:42;37.90;99.10
16477;DHT22;8349;50.928;6.376;2022-08-23T15:26:09;37.60;98.40
16477;DHT22;8349;50.928;6.376;2022-08-23T15:28:38;37.90;97.90
16477;DHT22;8349;50.928;6.376;2022-08-23T15:31:05;37.60;97.60
16477;DHT22;8349;50.928;6.376;2022-08-23T15:33:31;37.30;97.40
16477;DHT22;8349;50.928;6.376;2022-08-23T15:35:58;37.10;97.40
16477;DHT22;8349;50.928;6.376;2022-08-23T15:38:26;37.60;97.30
16477;DHT22;8349;50.928;6.376;2022-08-23T15:40:57;37.90;97.00
16477;DHT22;8349;50.928;6.376;2022-08-23T15:43:25;37.60;97.00
16477;DHT22;8349;50.928;6.376;2022-08-23T15:45:53;36.60;96.70
16477;DHT22;8349;50.928;6.376;2022-08-23T15:48:20;36.20;97.30
16477;DHT22;8349;50.928;6.376;2022-08-23T15:50:48;35.50;97.40
16477;DHT22;8349;50.928;6.376;2022-08-23T15:53:15;35.30;97.80
16477;DHT22;8349;50.928;6.376;2022-08-23T15:55:42;35.60;97.90
16477;DHT22;8349;50.928;6.376;2022-08-23T15:58:11;35.90;98.10
16477;DHT22;8349;50.928;6.376;2022-08-23T16:00:39;36.10;97.60
16477;DHT22;8349;50.928;6.376;2022-08-23T16:03:07;36.20;97.40
16477;DHT22;8349;50.928;6.376;2022-08-23T16:05:34;35.80;97.60
16477;DHT22;8349;50.928;6.376;2022-08-23T16:08:01;36.10;97.80
16477;DHT22;8349;50.928;6.376;2022-08-23T16:10:28;35.90;97.10
16477;DHT22;8349;50.928;6.376;2022-08-23T16:12:55;35.30;97.50
16477;DHT22;8349;50.928;6.376;2022-08-23T16:15:22;34.50;97.90
16477;DHT22;8349;50.928;6.376;2022-08-23T16:17:49;34.30;98.20
16477;DHT22;8349;50.928;6.376;2022-08-23T16:20:17;34.10;98.10